Time;durP1;ratioP1;P1;durP2;ratioP2;P2;SDS_P1;SDS_P2;PMS_P1;PMS_P2;Temp;Humidity;BMP_temperature;BMP_pressure;BME280_temperature;BME280_humidity;BME280_pressure;Samples;Min_cycle;Max_cycle;Signal;HPM_P1;HPM_P2
2022/05/31 00:02:17;;;;;;;4.13;2.35;;;8.90;99.90;;;;;;5054991;28;20064;-79
2022/05/31 00:04:42;;;;;;;3.72;2.40;;;8.70;99.90;;;;;;5053547;28;20180;-80
2022/05/31 00:07:08;;;;;;;4.07;2.30;;;8.60;99.90;;;;;;5072774;28;20123;-78
2022/05/31 00:09:35;;;;;;;3.17;2.60;;;8.50;99.90;;;;;;5073696;28;20044;-78
2022/05/31 00:12:01;;;;;;;5.85;2.60;;;8.50;99.90;;;;;;5074372;28;20048;-79
2022/05/31 00:14:27;;;;;;;5.57;2.50;;;8.50;99.90;;;;;;5074482;28;20052;-79
2022/05/31 00:16:53;;;;;;;3.85;2.65;;;8.30;99.90;;;;;;5074227;28;20055;-82
2022/05/31 00:19:19;;;;;;;3.38;2.33;;;8.30;99.90;;;;;;5054836;28;20442;-79
2022/05/31 00:21:56;;;;;;;4.10;2.78;;;8.20;99.90;;;;;;5063539;28;20131;-78
2022/05/31 00:24:22;;;;;;;6.72;3.10;;;8.10;99.90;;;;;;5056092;28;20048;-79
2022/05/31 00:26:48;;;;;;;5.07;2.90;;;8.20;99.90;;;;;;5054022;28;20092;-78
2022/05/31 00:29:14;;;;;;;3.55;2.63;;;8.10;99.90;;;;;;5057839;28;20084;-79
2022/05/31 00:31:44;;;;;;;3.10;2.75;;;8.00;99.90;;;;;;5054454;28;20041;-78
2022/05/31 00:34:12;;;;;;;6.47;3.50;;;8.20;99.90;;;;;;5063712;28;20075;-79
2022/05/31 00:36:39;;;;;;;6.05;3.33;;;8.00;99.90;;;;;;5074444;28;20475;-78
2022/05/31 00:39:05;;;;;;;4.13;3.42;;;8.00;99.90;;;;;;5065080;28;20037;-80
2022/05/31 00:41:33;;;;;;;4.35;3.42;;;7.90;99.90;;;;;;5053025;28;20053;-78
2022/05/31 00:44:19;;;;;;;5.07;3.60;;;7.90;99.90;;;;;;5057780;28;20048;-79
2022/05/31 00:46:48;;;;;;;6.03;3.15;;;7.90;99.90;;;;;;5073809;28;20379;-78
2022/05/31 00:49:24;;;;;;;3.70;3.33;;;7.80;99.90;;;;;;5073898;28;20083;-80
2022/05/31 00:51:53;;;;;;;5.55;3.60;;;7.80;99.90;;;;;;5071861;28;20047;-79
2022/05/31 00:54:22;;;;;;;6.13;3.60;;;7.80;99.90;;;;;;5071637;28;20045;-79
2022/05/31 00:56:49;;;;;;;5.78;3.60;;;7.70;99.90;;;;;;5054118;28;20049;-79
2022/05/31 00:59:23;;;;;;;6.18;3.58;;;7.70;99.90;;;;;;5057054;28;20048;-80
2022/05/31 01:01:53;;;;;;;8.02;3.72;;;7.90;99.90;;;;;;5036145;28;20107;-79
2022/05/31 01:04:30;;;;;;;6.38;3.78;;;7.70;99.90;;;;;;5065493;28;20059;-78
2022/05/31 01:06:58;;;;;;;6.43;4.00;;;7.60;99.90;;;;;;5055869;28;20045;-79
2022/05/31 01:09:24;;;;;;;5.25;4.10;;;7.80;99.90;;;;;;5053583;28;20128;-81
2022/05/31 01:11:50;;;;;;;5.50;4.25;;;7.60;99.90;;;;;;5054423;28;20589;-79
2022/05/31 01:14:15;;;;;;;6.57;4.00;;;7.50;99.90;;;;;;5053741;28;20127;-79
2022/05/31 01:17:21;;;;;;;5.97;4.03;;;7.50;99.90;;;;;;5068182;28;20040;-79
2022/05/31 01:19:57;;;;;;;7.38;4.15;;;7.50;99.90;;;;;;5071175;28;20528;-78
2022/05/31 01:22:33;;;;;;;8.48;4.45;;;7.50;99.90;;;;;;5068823;28;20052;-78
2022/05/31 01:25:30;;;;;;;6.75;4.40;;;7.40;99.90;;;;;;5053052;28;20041;-79
2022/05/31 01:28:20;;;;;;;5.25;4.22;;;7.40;99.90;;;;;;5053092;28;20122;-80
2022/05/31 01:30:57;;;;;;;6.82;4.20;;;7.40;99.90;;;;;;5053129;28;20049;-79
2022/05/31 01:33:39;;;;;;;7.30;4.22;;;7.40;99.90;;;;;;5052531;28;20068;-79
2022/05/31 01:36:12;;;;;;;5.38;4.20;;;7.30;99.90;;;;;;5067487;28;20036;-78
2022/05/31 01:39:04;;;;;;;9.68;4.72;;;7.30;99.90;;;;;;5071954;28;20426;-78
2022/05/31 01:41:36;;;;;;;;;;;7.30;99.90;;;;;;5068719;28;20044;-78
2022/05/31 01:44:05;;;;;;;6.20;4.38;;;7.30;99.90;;;;;;5051943;28;19972;-78
2022/05/31 01:46:34;;;;;;;5.80;4.22;;;7.30;99.90;;;;;;5053030;28;20037;-78
2022/05/31 01:49:06;;;;;;;6.53;4.13;;;7.30;99.90;;;;;;5052598;28;20049;-79
2022/05/31 01:51:32;;;;;;;5.75;4.53;;;7.50;99.90;;;;;;5051966;28;20103;-78
2022/05/31 01:53:59;;;;;;;6.57;4.45;;;7.40;99.90;;;;;;5052601;28;20057;-78
2022/05/31 01:56:25;;;;;;;6.88;4.20;;;7.50;99.90;;;;;;5053419;28;20077;-79
2022/05/31 01:58:54;;;;;;;6.68;4.03;;;7.60;99.90;;;;;;5052484;28;20056;-78
2022/05/31 02:01:21;;;;;;;5.95;4.00;;;7.70;99.90;;;;;;5051549;28;20402;-78
2022/05/31 02:03:47;;;;;;;5.72;3.90;;;7.70;99.90;;;;;;5064566;28;20063;-78
2022/05/31 02:06:45;;;;;;;6.05;4.28;;;7.80;99.90;;;;;;5071613;28;20052;-78
2022/05/31 02:09:13;;;;;;;5.55;3.75;;;7.90;99.90;;;;;;5030022;28;20060;-79
2022/05/31 02:11:39;;;;;;;4.35;3.78;;;8.10;99.90;;;;;;5029425;28;20140;-78
2022/05/31 02:14:06;;;;;;;4.65;3.92;;;8.10;99.90;;;;;;5028632;28;20046;-78
2022/05/31 02:16:33;;;;;;;4.80;4.30;;;8.50;99.90;;;;;;5030207;28;20625;-78
2022/05/31 02:19:23;;;;;;;4.55;4.07;;;8.30;99.90;;;;;;5017119;28;20089;-78
2022/05/31 02:21:50;;;;;;;6.95;4.03;;;8.40;99.90;;;;;;5010536;28;20053;-79
2022/05/31 02:24:16;;;;;;;4.38;3.78;;;8.40;99.90;;;;;;5011392;28;20508;-80
2022/05/31 02:26:43;;;;;;;6.72;4.05;;;8.50;99.90;;;;;;4993737;28;20522;-81
2022/05/31 02:29:11;;;;;;;5.45;3.72;;;8.60;99.90;;;;;;5015455;28;20056;-81
2022/05/31 02:31:37;;;;;;;8.85;4.22;;;8.60;99.90;;;;;;5001670;28;20061;-78
2022/05/31 02:34:04;;;;;;;5.45;3.78;;;8.60;99.90;;;;;;5003086;28;20404;-78
2022/05/31 02:36:30;;;;;;;5.78;3.85;;;8.70;99.90;;;;;;4994231;28;20049;-79
2022/05/31 02:38:56;;;;;;;5.57;3.92;;;8.80;99.90;;;;;;5010371;28;20128;-79
2022/05/31 02:41:22;;;;;;;4.75;3.40;;;8.70;99.90;;;;;;5010390;28;20049;-79
2022/05/31 02:43:48;;;;;;;5.75;3.97;;;8.80;99.90;;;;;;5018415;28;20042;-79
2022/05/31 02:46:15;;;;;;;6.15;3.88;;;8.80;99.90;;;;;;5052331;28;20546;-79
2022/05/31 02:48:40;;;;;;;9.55;4.22;;;8.80;99.90;;;;;;5052355;28;20045;-79
2022/05/31 02:51:06;;;;;;;4.45;4.00;;;8.80;99.90;;;;;;5052471;28;20052;-78
2022/05/31 02:53:32;;;;;;;8.65;4.20;;;8.80;99.90;;;;;;5052032;28;20056;-79
2022/05/31 02:55:58;;;;;;;5.78;3.67;;;8.80;99.90;;;;;;5058600;28;20127;-78
2022/05/31 02:58:25;;;;;;;5.25;3.58;;;8.90;99.90;;;;;;5070935;28;20138;-79
2022/05/31 03:00:52;;;;;;;6.45;4.03;;;8.90;99.90;;;;;;5070445;28;20051;-78
2022/05/31 03:03:18;;;;;;;7.03;3.90;;;8.90;99.90;;;;;;5070730;28;20044;-79
2022/05/31 03:05:44;;;;;;;6.07;3.78;;;8.90;99.90;;;;;;5069650;28;20054;-79
2022/05/31 03:08:11;;;;;;;6.55;4.15;;;8.90;99.90;;;;;;5074400;28;20440;-78
2022/05/31 03:10:40;;;;;;;6.50;3.88;;;8.90;99.90;;;;;;5065467;28;20060;-78
2022/05/31 03:13:09;;;;;;;6.90;4.32;;;9.00;99.90;;;;;;5037985;28;20057;-79
2022/05/31 03:15:36;;;;;;;4.57;4.03;;;9.10;99.90;;;;;;5056928;28;20037;-79
2022/05/31 03:18:13;;;;;;;5.20;4.05;;;9.00;99.90;;;;;;5065706;28;20060;-78
2022/05/31 03:20:41;;;;;;;5.57;4.40;;;9.00;99.90;;;;;;5075255;28;20049;-78
2022/05/31 03:23:16;;;;;;;6.13;3.97;;;9.00;99.90;;;;;;5075430;28;20053;-79
2022/05/31 03:25:44;;;;;;;5.03;3.85;;;9.00;99.90;;;;;;5072888;28;20128;-82
2022/05/31 03:28:10;;;;;;;8.35;4.40;;;9.00;99.90;;;;;;5075472;28;20405;-79
2022/05/31 03:30:37;;;;;;;4.55;4.15;;;9.00;99.90;;;;;;5073816;28;20715;-78
2022/05/31 03:33:05;;;;;;;5.20;4.00;;;9.10;99.90;;;;;;5075218;28;20052;-79
2022/05/31 03:35:31;;;;;;;8.38;3.95;;;9.10;99.90;;;;;;5075450;28;20040;-78
2022/05/31 03:37:57;;;;;;;4.68;3.83;;;9.10;99.90;;;;;;5074833;28;20482;-79
2022/05/31 03:43:07;;;;;;;5.13;3.67;;;9.10;99.90;;;;;;5075602;28;20067;-80
2022/05/31 03:45:38;;;;;;;5.07;4.07;;;9.20;99.90;;;;;;5075155;28;20401;-79
2022/05/31 03:48:05;;;;;;;4.97;3.85;;;9.40;99.90;;;;;;5057060;28;20044;-79
2022/05/31 03:50:31;;;;;;;5.95;4.07;;;9.20;99.90;;;;;;5054926;28;20513;-79
2022/05/31 03:52:57;;;;;;;5.32;4.05;;;9.20;99.90;;;;;;5067900;28;20041;-79
2022/05/31 03:55:22;;;;;;;4.55;3.88;;;9.30;99.90;;;;;;5074862;28;20052;-79
2022/05/31 03:57:50;;;;;;;5.22;3.78;;;9.30;99.90;;;;;;5073785;28;20048;-79
2022/05/31 04:00:17;;;;;;;5.03;3.35;;;9.30;99.90;;;;;;5073559;28;20489;-79
2022/05/31 04:02:42;;;;;;;7.47;3.60;;;9.40;99.90;;;;;;5069878;28;20044;-79
2022/05/31 04:05:09;;;;;;;6.93;3.83;;;9.50;99.90;;;;;;5053736;28;20406;-79
2022/05/31 04:07:35;;;;;;;5.35;3.55;;;9.50;99.90;;;;;;5053775;28;20465;-79
2022/05/31 04:10:04;;;;;;;4.15;3.50;;;9.50;99.90;;;;;;5054731;28;20077;-79
2022/05/31 04:12:31;;;;;;;5.43;3.60;;;9.60;99.90;;;;;;5072862;28;20041;-78
2022/05/31 04:14:57;;;;;;;3.22;2.80;;;9.60;99.90;;;;;;5073627;28;20490;-77
2022/05/31 04:17:23;;;;;;;5.35;3.03;;;9.70;99.90;;;;;;5074301;28;20071;-79
2022/05/31 04:19:48;;;;;;;4.65;3.20;;;9.70;99.90;;;;;;5054092;28;20041;-79
2022/05/31 04:22:14;;;;;;;3.30;2.90;;;9.80;99.90;;;;;;5053861;28;20080;-80
2022/05/31 04:24:39;;;;;;;8.63;3.10;;;9.80;99.90;;;;;;5053280;28;20542;-79
2022/05/31 04:27:06;;;;;;;4.03;3.10;;;9.80;99.90;;;;;;5054617;28;20104;-82
2022/05/31 04:29:32;;;;;;;6.20;3.10;;;9.80;99.90;;;;;;5054270;28;20478;-79
2022/05/31 04:31:57;;;;;;;6.70;3.55;;;9.80;99.90;;;;;;5053411;28;20060;-78
2022/05/31 04:34:23;;;;;;;3.70;2.72;;;9.90;99.90;;;;;;5063420;28;20044;-79
2022/05/31 04:36:48;;;;;;;7.60;3.42;;;10.00;99.90;;;;;;5066172;28;20045;-79
2022/05/31 04:39:14;;;;;;;4.90;3.00;;;10.00;99.90;;;;;;5060241;28;20048;-78
2022/05/31 04:41:41;;;;;;;3.78;3.30;;;10.00;99.90;;;;;;5070498;28;20055;-79
2022/05/31 04:44:07;;;;;;;7.30;3.15;;;10.10;99.90;;;;;;5073189;28;20041;-79
2022/05/31 04:46:34;;;;;;;3.97;3.30;;;10.20;99.90;;;;;;5072920;28;20075;-79
2022/05/31 04:49:02;;;;;;;4.25;3.17;;;10.20;99.90;;;;;;5056412;28;20514;-77
2022/05/31 04:51:29;;;;;;;5.10;2.60;;;10.50;99.90;;;;;;5053961;28;20482;-78
2022/05/31 04:53:55;;;;;;;5.82;3.13;;;10.40;99.90;;;;;;5053638;28;20048;-77
2022/05/31 04:56:22;;;;;;;6.57;3.28;;;10.40;99.90;;;;;;5056174;28;20080;-78
2022/05/31 04:58:49;;;;;;;5.47;2.95;;;10.40;99.90;;;;;;5056654;28;20063;-78
2022/05/31 05:01:15;;;;;;;4.20;2.72;;;10.50;99.90;;;;;;5071578;28;20048;-79
2022/05/31 05:03:47;;;;;;;6.22;3.08;;;10.50;99.90;;;;;;5069619;28;20033;-78
2022/05/31 05:06:15;;;;;;;4.13;2.55;;;10.60;99.90;;;;;;5053130;28;20052;-79
2022/05/31 05:08:41;;;;;;;4.03;2.88;;;10.60;99.90;;;;;;5054146;28;20080;-80
2022/05/31 05:11:10;;;;;;;4.45;3.00;;;10.80;99.90;;;;;;5054613;28;20045;-79
2022/05/31 05:13:36;;;;;;;5.38;3.20;;;10.70;99.90;;;;;;5053501;28;20033;-79
2022/05/31 05:16:02;;;;;;;4.85;3.30;;;10.70;99.90;;;;;;5066002;28;20093;-80
2022/05/31 05:18:32;;;;;;;3.03;2.28;;;10.80;99.90;;;;;;5054337;28;20040;-79
2022/05/31 05:21:00;;;;;;;4.05;2.63;;;10.80;99.90;;;;;;5062393;28;20048;-79
2022/05/31 05:23:26;;;;;;;6.90;2.90;;;10.80;99.90;;;;;;5056746;28;20205;-79
2022/05/31 05:25:54;;;;;;;3.85;3.15;;;10.90;99.90;;;;;;5067038;28;20111;-80
2022/05/31 05:31:05;;;;;;;4.07;2.60;;;11.00;99.90;;;;;;5061144;28;20083;-79
2022/05/31 05:33:32;;;;;;;6.47;2.97;;;11.20;99.90;;;;;;5059704;28;20049;-79
2022/05/31 05:35:58;;;;;;;6.57;2.78;;;11.10;99.90;;;;;;5059928;28;20149;-79
2022/05/31 05:38:24;;;;;;;3.75;2.88;;;11.20;99.90;;;;;;5072785;28;20127;-79
2022/05/31 05:40:49;;;;;;;8.98;3.65;;;11.20;99.90;;;;;;5073306;28;20170;-80
2022/05/31 05:43:16;;;;;;;6.18;2.97;;;11.30;99.90;;;;;;5072125;28;20044;-81
2022/05/31 05:45:41;;;;;;;3.80;2.78;;;11.30;99.90;;;;;;5073178;28;20410;-80
2022/05/31 05:48:07;;;;;;;5.43;2.78;;;11.40;99.90;;;;;;5073208;28;20048;-79
2022/05/31 05:50:34;;;;;;;5.32;2.80;;;11.50;99.90;;;;;;5072314;28;20170;-80
2022/05/31 05:53:04;;;;;;;4.35;2.53;;;11.50;99.90;;;;;;5071908;28;20513;-79
2022/05/31 05:55:30;;;;;;;16.63;3.00;;;11.60;99.90;;;;;;5071935;28;20056;-81
2022/05/31 05:57:55;;;;;;;6.03;2.72;;;11.60;99.90;;;;;;5073035;28;20367;-80
2022/05/31 06:00:22;;;;;;;4.53;2.70;;;11.60;99.90;;;;;;5071950;28;20436;-79
2022/05/31 06:02:56;;;;;;;4.10;2.63;;;11.70;99.90;;;;;;5072723;28;20095;-79
2022/05/31 06:05:27;;;;;;;4.70;2.88;;;12.00;99.90;;;;;;5072600;28;20044;-79
2022/05/31 06:08:01;;;;;;;4.63;2.75;;;11.90;99.90;;;;;;5072916;28;20050;-80
2022/05/31 06:10:33;;;;;;;6.45;3.15;;;12.00;99.90;;;;;;5071756;28;20044;-80
2022/05/31 06:13:10;;;;;;;5.47;2.47;;;12.10;99.90;;;;;;5071801;28;20087;-79
2022/05/31 06:15:41;;;;;;;3.63;2.67;;;12.20;99.90;;;;;;5071784;28;20386;-79
2022/05/31 06:18:12;;;;;;;;;;;12.40;99.90;;;;;;5072034;28;20422;-78
2022/05/31 06:20:38;;;;;;;2.75;2.47;;;12.50;99.90;;;;;;5071975;28;19924;-79
2022/05/31 06:23:04;;;;;;;5.00;2.55;;;12.70;99.90;;;;;;5072731;28;20634;-80
2022/05/31 06:25:30;;;;;;;5.82;2.70;;;12.90;99.90;;;;;;5072944;28;20499;-80
2022/05/31 06:27:55;;;;;;;6.57;2.70;;;13.10;99.90;;;;;;5072468;28;20513;-83
2022/05/31 06:30:21;;;;;;;3.50;2.30;;;13.20;99.90;;;;;;5071127;28;20048;-81
2022/05/31 06:32:48;;;;;;;6.53;2.60;;;13.20;99.90;;;;;;5072773;28;20049;-80
2022/05/31 06:35:13;;;;;;;5.85;2.70;;;13.30;99.90;;;;;;5073587;28;20040;-80
2022/05/31 06:37:39;;;;;;;5.47;2.50;;;13.40;99.90;;;;;;5074196;28;20505;-78
2022/05/31 06:40:05;;;;;;;4.38;2.50;;;13.80;99.90;;;;;;5072793;28;20052;-80
2022/05/31 06:42:32;;;;;;;4.45;2.75;;;14.40;99.90;;;;;;5075600;28;20048;-80
2022/05/31 06:44:59;;;;;;;5.47;2.30;;;15.10;99.90;;;;;;5058934;28;20041;-80
2022/05/31 06:47:25;;;;;;;3.97;2.03;;;15.50;99.90;;;;;;5076687;28;20049;-80
2022/05/31 06:49:51;;;;;;;5.25;2.72;;;16.00;99.90;;;;;;5076781;28;20400;-80
2022/05/31 06:57:46;;;;;;;4.53;2.50;;;16.00;99.90;;;;;;5076389;28;20056;-80
2022/05/31 07:00:19;;;;;;;7.07;2.60;;;16.10;99.90;;;;;;5076618;28;20463;-80
2022/05/31 07:02:45;;;;;;;4.00;2.47;;;16.40;99.90;;;;;;5075758;28;20040;-80
2022/05/31 07:05:12;;;;;;;4.68;2.30;;;16.90;99.90;;;;;;5075169;28;20047;-80
2022/05/31 07:07:39;;;;;;;4.60;2.35;;;17.00;99.90;;;;;;5076132;28;20098;-81
2022/05/31 07:10:07;;;;;;;4.82;2.20;;;17.20;99.90;;;;;;5058518;28;20090;-81
2022/05/31 07:12:34;;;;;;;4.45;2.13;;;17.70;99.90;;;;;;5074663;28;20088;-80
2022/05/31 07:15:00;;;;;;;5.38;2.30;;;18.30;99.90;;;;;;5076069;28;20040;-80
2022/05/31 07:17:26;;;;;;;4.38;1.80;;;18.90;99.30;;;;;;5076090;28;20405;-80
2022/05/31 07:19:52;;;;;;;4.68;1.77;;;19.50;93.70;;;;;;5074702;28;20095;-80
2022/05/31 07:22:18;;;;;;;6.65;1.85;;;19.90;86.10;;;;;;5075894;28;20044;-78
2022/05/31 07:24:44;;;;;;;8.68;2.03;;;20.10;84.10;;;;;;5076007;28;20387;-77
2022/05/31 07:27:10;;;;;;;5.60;2.33;;;20.50;80.30;;;;;;5075627;28;20100;-78
2022/05/31 07:29:36;;;;;;;5.40;2.00;;;21.00;74.70;;;;;;5076149;28;20079;-77
2022/05/31 07:32:02;;;;;;;6.40;2.38;;;21.30;72.30;;;;;;5075782;28;20059;-78
2022/05/31 07:34:28;;;;;;;5.82;1.90;;;21.60;66.50;;;;;;5074756;28;20400;-78
2022/05/31 07:36:53;;;;;;;2.55;1.52;;;21.80;65.80;;;;;;5074350;28;20045;-79
2022/05/31 07:39:20;;;;;;;4.30;2.20;;;22.10;63.50;;;;;;5074239;28;20061;-78
2022/05/31 07:41:46;;;;;;;4.50;2.03;;;22.30;61.80;;;;;;5075352;28;20490;-79
2022/05/31 07:44:14;;;;;;;3.42;2.08;;;22.50;60.30;;;;;;5074350;28;20055;-78
2022/05/31 07:46:39;;;;;;;4.57;1.98;;;22.70;58.90;;;;;;5075714;28;20041;-79
2022/05/31 07:49:05;;;;;;;8.23;2.40;;;22.80;58.30;;;;;;5075497;28;20512;-79
2022/05/31 07:51:31;;;;;;;6.65;2.13;;;22.80;57.10;;;;;;5074037;28;20053;-79
2022/05/31 07:53:57;;;;;;;4.68;2.15;;;22.70;57.30;;;;;;5073578;28;20056;-78
2022/05/31 07:56:23;;;;;;;5.90;2.60;;;22.60;57.30;;;;;;5074308;28;20135;-78
2022/05/31 07:58:49;;;;;;;5.43;2.85;;;22.60;57.60;;;;;;5074958;28;20041;-79
2022/05/31 08:01:19;;;;;;;4.60;2.45;;;22.70;55.90;;;;;;5075376;28;20036;-78
2022/05/31 08:03:45;;;;;;;6.03;2.53;;;22.80;55.00;;;;;;5075480;28;20053;-78
2022/05/31 08:06:13;;;;;;;4.18;2.90;;;23.10;54.00;;;;;;5075086;28;20047;-78
2022/05/31 08:08:39;;;;;;;6.82;2.75;;;23.50;52.50;;;;;;5075195;28;20083;-78
2022/05/31 08:11:38;;;;;;;6.68;2.90;;;23.70;51.30;;;;;;5074053;28;20072;-79
2022/05/31 08:14:04;;;;;;;4.55;2.42;;;23.80;50.80;;;;;;5032752;28;20565;-78
2022/05/31 08:16:30;;;;;;;5.53;2.78;;;24.00;51.40;;;;;;5016652;28;20057;-78
2022/05/31 08:18:57;;;;;;;3.45;2.75;;;24.20;49.00;;;;;;5032836;28;20558;-78
2022/05/31 08:21:29;;;;;;;5.45;2.85;;;24.30;47.80;;;;;;5016548;28;20053;-78
2022/05/31 08:24:03;;;;;;;4.28;2.72;;;24.40;47.40;;;;;;5015996;28;20103;-78
2022/05/31 08:26:29;;;;;;;5.72;3.10;;;24.50;46.90;;;;;;5032386;28;20059;-78
2022/05/31 08:28:55;;;;;;;5.50;3.08;;;24.50;46.70;;;;;;5032580;28;20124;-78
2022/05/31 08:31:31;;;;;;;4.53;2.88;;;24.50;46.80;;;;;;5015954;28;20053;-78
2022/05/31 08:33:57;;;;;;;6.05;3.08;;;24.60;46.80;;;;;;5032345;28;20053;-78
2022/05/31 08:36:23;;;;;;;4.03;2.95;;;24.90;46.50;;;;;;5032168;28;20406;-78
2022/05/31 08:38:49;;;;;;;7.35;3.20;;;25.20;45.90;;;;;;5032189;28;20140;-79
2022/05/31 08:41:33;;;;;;;6.00;3.10;;;25.30;45.40;;;;;;4999737;28;20414;-78
2022/05/31 08:44:21;;;;;;;6.03;2.78;;;25.30;45.00;;;;;;5032257;28;20054;-78
2022/05/31 08:47:00;;;;;;;10.10;3.38;;;25.50;45.10;;;;;;5032168;28;20566;-78
2022/05/31 08:52:45;;;;;;;5.95;3.50;;;26.10;41.70;;;;;;5075496;28;20052;-78
2022/05/31 08:58:13;;;;;;;8.32;2.78;;;25.50;43.30;;;;;;5077281;28;20064;-79
2022/05/31 09:00:43;;;;;;;5.03;3.22;;;25.20;43.40;;;;;;5075447;28;20049;-79
2022/05/31 09:03:25;;;;;;;8.27;2.95;;;25.00;44.40;;;;;;5075227;28;20048;-78
2022/05/31 09:06:05;;;;;;;7.18;3.78;;;24.80;43.70;;;;;;5072769;28;20505;-79
2022/05/31 09:08:51;;;;;;;6.05;3.45;;;24.20;45.50;;;;;;5075788;28;20045;-78
2022/05/31 09:11:21;;;;;;;7.72;3.55;;;23.80;45.30;;;;;;5075657;28;20040;-78
2022/05/31 09:14:17;;;;;;;8.85;3.95;;;23.50;46.10;;;;;;5075729;28;20102;-80
2022/05/31 09:17:02;;;;;;;6.75;3.75;;;23.60;44.40;;;;;;5073122;28;20072;-78
2022/05/31 09:19:44;;;;;;;6.88;3.70;;;23.20;45.20;;;;;;5057488;28;20378;-78
2022/05/31 09:22:10;;;;;;;7.07;3.47;;;22.80;46.70;;;;;;5073905;28;20052;-81
2022/05/31 09:24:44;;;;;;;7.85;3.70;;;22.80;46.40;;;;;;5073325;28;20048;-82
2022/05/31 09:27:14;;;;;;;7.95;3.50;;;23.30;45.30;;;;;;5055865;28;20079;-82
2022/05/31 09:30:09;;;;;;;7.85;3.20;;;24.10;44.70;;;;;;5072536;28;20064;-81
2022/05/31 09:33:04;;;;;;;7.22;3.50;;;24.90;44.80;;;;;;5015007;28;20136;-82
2022/05/31 09:35:50;;;;;;;5.25;3.40;;;24.70;41.50;;;;;;4953169;29;20505;-81
2022/05/31 09:38:32;;;;;;;8.15;3.67;;;23.90;42.10;;;;;;4953365;29;20091;-78
2022/05/31 09:41:26;;;;;;;7.15;2.85;;;23.10;44.20;;;;;;4953312;29;20055;-78
2022/05/31 09:44:15;;;;;;;9.52;4.40;;;22.50;46.90;;;;;;4953069;29;20055;-77
2022/05/31 09:46:53;;;;;;;6.65;3.92;;;21.80;46.80;;;;;;4953251;29;20095;-80
2022/05/31 09:49:36;;;;;;;6.82;3.90;;;21.30;48.00;;;;;;4938439;29;20110;-77
2022/05/31 09:52:07;;;;;;;8.52;4.75;;;21.00;48.70;;;;;;4952821;29;20118;-78
2022/05/31 09:58:01;;;;;;;5.93;3.58;;;20.30;49.10;;;;;;4952966;29;20492;-78
2022/05/31 10:00:26;;;;;;;9.10;3.78;;;20.20;50.00;;;;;;4952701;29;20063;-78
2022/05/31 10:03:12;;;;;;;10.48;4.05;;;20.10;50.80;;;;;;4936764;29;20062;-78
2022/05/31 10:05:39;;;;;;;8.07;3.97;;;20.10;52.30;;;;;;4952863;29;20063;-79
2022/05/31 10:08:33;;;;;;;8.30;4.47;;;20.00;51.90;;;;;;4952815;29;20096;-79
2022/05/31 10:11:05;;;;;;;6.70;4.30;;;19.80;51.40;;;;;;4994777;28;20053;-79
2022/05/31 10:13:39;;;;;;;8.70;4.75;;;19.50;52.00;;;;;;5068523;28;20053;-78
2022/05/31 10:16:23;;;;;;;5.38;3.90;;;19.20;53.00;;;;;;5071674;28;20091;-79
2022/05/31 10:18:50;;;;;;;8.07;4.18;;;18.90;54.50;;;;;;5071760;28;20048;-78
2022/05/31 10:21:37;;;;;;;8.18;4.63;;;18.80;55.10;;;;;;5072630;28;20052;-78
2022/05/31 10:24:21;;;;;;;7.75;4.43;;;18.70;55.10;;;;;;5071647;28;20050;-78
2022/05/31 10:27:14;;;;;;;5.93;3.50;;;18.60;55.40;;;;;;5072830;28;20083;-78
2022/05/31 10:29:52;;;;;;;9.38;3.45;;;18.40;51.70;;;;;;5072852;28;20405;-78
2022/05/31 10:32:24;;;;;;;6.65;3.08;;;18.10;51.00;;;;;;5072657;28;20066;-81
2022/05/31 10:35:03;;;;;;;7.32;3.97;;;18.00;51.40;;;;;;5071662;28;20045;-79
2022/05/31 10:37:32;;;;;;;4.93;2.65;;;17.90;50.30;;;;;;5072517;28;20041;-79
2022/05/31 10:40:09;;;;;;;6.85;2.90;;;17.70;50.50;;;;;;5071737;28;20079;-78
2022/05/31 10:42:41;;;;;;;10.07;4.20;;;17.60;51.40;;;;;;5072479;28;20040;-78
2022/05/31 10:45:16;;;;;;;7.60;3.80;;;17.50;51.10;;;;;;5072711;28;20098;-78
2022/05/31 10:47:41;;;;;;;7.03;3.50;;;17.40;51.40;;;;;;5072546;28;20087;-78
2022/05/31 10:50:08;;;;;;;7.80;3.80;;;17.40;52.70;;;;;;5071358;28;20509;-78
2022/05/31 10:53:25;;;;;;;7.28;4.15;;;17.40;53.10;;;;;;5071445;28;20063;-80
2022/05/31 10:56:02;;;;;;;7.13;3.63;;;17.40;53.60;;;;;;5030160;28;20132;-80
2022/05/31 10:58:53;;;;;;;7.80;4.05;;;17.40;53.70;;;;;;5030254;28;20087;-78
2022/05/31 11:01:36;;;;;;;8.10;3.58;;;17.60;53.20;;;;;;5013403;28;20060;-82
2022/05/31 11:04:39;;;;;;;7.07;3.50;;;17.80;53.10;;;;;;5030042;28;20111;-78
2022/05/31 11:07:13;;;;;;;5.07;3.22;;;17.90;52.00;;;;;;5030089;28;20053;-78
2022/05/31 11:12:50;;;;;;;11.45;4.20;;;17.90;54.10;;;;;;5030062;28;20057;-78
2022/05/31 11:15:32;;;;;;;6.45;3.90;;;17.90;54.40;;;;;;5030108;28;20556;-78
2022/05/31 11:18:30;;;;;;;6.60;3.95;;;17.90;55.40;;;;;;5030244;28;20053;-79
2022/05/31 11:21:21;;;;;;;13.52;5.30;;;17.90;56.50;;;;;;5030037;28;20057;-79
2022/05/31 11:24:01;;;;;;;8.55;5.25;;;17.90;55.30;;;;;;4951946;29;20055;-79
2022/05/31 11:26:34;;;;;;;9.83;4.77;;;17.80;55.80;;;;;;4951658;29;20063;-78
2022/05/31 11:29:19;;;;;;;9.32;4.88;;;17.80;57.10;;;;;;4922472;29;20047;-78
2022/05/31 11:32:22;;;;;;;12.27;5.15;;;17.80;57.70;;;;;;4962321;28;20521;-78
2022/05/31 11:35:01;;;;;;;8.48;4.60;;;17.90;58.70;;;;;;4974809;28;20141;-79
2022/05/31 11:37:32;;;;;;;5.88;4.03;;;17.90;59.20;;;;;;4975028;28;20149;-79
2022/05/31 11:40:21;;;;;;;8.57;4.93;;;18.00;59.20;;;;;;4959549;28;20062;-78
2022/05/31 11:43:08;;;;;;;6.70;4.05;;;18.00;59.90;;;;;;4974837;28;20043;-78
2022/05/31 11:45:45;;;;;;;12.18;4.75;;;17.90;61.10;;;;;;4958579;28;20068;-78
2022/05/31 11:48:26;;;;;;;9.35;4.55;;;17.80;61.20;;;;;;4958564;28;20141;-78
2022/05/31 11:51:12;;;;;;;8.20;4.00;;;17.60;62.60;;;;;;4974438;28;20047;-78
2022/05/31 11:54:18;;;;;;;8.40;4.10;;;17.50;63.20;;;;;;4958386;28;20576;-78
2022/05/31 11:57:14;;;;;;;6.78;3.92;;;17.40;64.70;;;;;;4860800;29;20508;-78
2022/05/31 11:59:53;;;;;;;8.63;4.68;;;17.40;64.70;;;;;;4848598;29;20627;-78
2022/05/31 12:02:45;;;;;;;8.48;4.32;;;17.40;63.40;;;;;;4935704;29;20402;-79
2022/05/31 12:05:28;;;;;;;7.18;4.28;;;17.30;61.60;;;;;;4935899;29;20052;-78
2022/05/31 12:08:11;;;;;;;9.20;4.78;;;17.30;63.60;;;;;;4935725;29;20056;-78
2022/05/31 12:10:46;;;;;;;9.65;5.05;;;17.30;63.60;;;;;;4919793;29;20497;-83
2022/05/31 12:13:15;;;;;;;8.50;4.70;;;17.30;64.20;;;;;;4975050;28;20400;-78
2022/05/31 12:15:44;;;;;;;10.23;5.00;;;17.30;63.70;;;;;;4942365;28;20058;-78
2022/05/31 12:18:33;;;;;;;5.18;4.50;;;17.30;65.70;;;;;;4958246;28;20059;-78
2022/05/31 12:21:21;;;;;;;7.85;4.20;;;17.30;67.00;;;;;;4954682;29;20429;-78
2022/05/31 12:24:01;;;;;;;9.15;4.82;;;17.40;69.00;;;;;;4954498;29;20145;-80
2022/05/31 12:26:45;;;;;;;9.65;4.68;;;17.50;64.10;;;;;;4954506;29;20565;-78
2022/05/31 12:29:19;;;;;;;5.68;4.05;;;17.70;62.60;;;;;;4954848;29;20142;-78
2022/05/31 12:31:45;;;;;;;8.93;4.15;;;17.90;60.20;;;;;;4955439;29;20062;-79
2022/05/31 12:34:19;;;;;;;7.22;4.13;;;18.10;59.50;;;;;;5010407;28;20512;-78
2022/05/31 12:37:05;;;;;;;13.93;3.85;;;18.30;57.50;;;;;;5037862;28;20631;-79
2022/05/31 12:39:33;;;;;;;5.53;3.38;;;18.50;56.40;;;;;;5053883;28;20095;-78
2022/05/31 12:42:14;;;;;;;8.75;3.10;;;18.70;54.40;;;;;;5056998;28;20064;-78
2022/05/31 12:44:40;;;;;;;4.10;2.83;;;18.80;52.80;;;;;;5056247;28;20100;-87
2022/05/31 12:47:12;;;;;;;5.32;2.80;;;18.80;52.70;;;;;;5056446;28;20137;-78
2022/05/31 12:49:55;;;;;;;5.80;3.25;;;18.90;52.10;;;;;;5055788;28;20045;-78
2022/05/31 12:55:25;;;;;;;6.60;3.22;;;18.90;51.20;;;;;;5053346;28;20048;-80
2022/05/31 13:00:51;;;;;;;6.90;2.90;;;18.80;52.20;;;;;;5073124;28;20050;-79
2022/05/31 13:03:32;;;;;;;5.97;3.22;;;18.70;53.10;;;;;;5073016;28;20041;-78
2022/05/31 13:06:28;;;;;;;6.55;3.13;;;18.80;53.50;;;;;;5074200;28;20042;-79
2022/05/31 13:09:00;;;;;;;6.88;3.00;;;18.70;53.80;;;;;;5073081;28;20053;-78
2022/05/31 13:20:20;;;;;;;6.50;3.05;;;18.60;54.40;;;;;;5073924;28;20052;-79
2022/05/31 13:23:15;;;;;;;7.00;2.78;;;18.70;55.40;;;;;;5031587;28;20060;-78
2022/05/31 13:25:49;;;;;;;5.80;2.70;;;18.80;53.70;;;;;;5015036;28;20046;-78
2022/05/31 13:28:32;;;;;;;6.30;2.78;;;19.00;53.90;;;;;;5014678;28;20060;-79
2022/05/31 13:31:09;;;;;;;5.85;3.05;;;19.90;52.90;;;;;;5015216;28;20499;-78
2022/05/31 13:33:35;;;;;;;5.70;3.60;;;20.40;49.80;;;;;;5015141;28;20491;-79
2022/05/31 13:36:25;;;;;;;4.15;3.00;;;20.50;49.10;;;;;;5031371;28;20052;-78
2022/05/31 13:38:55;;;;;;;7.03;3.30;;;20.50;48.70;;;;;;4952951;29;20058;-79
2022/05/31 13:41:21;;;;;;;;;;;20.50;48.20;;;;;;4953646;29;20067;-79
2022/05/31 13:43:54;;;;;;;4.68;3.00;;;20.80;48.30;;;;;;4937199;29;19922;-79
2022/05/31 13:46:33;;;;;;;4.35;2.80;;;21.30;48.80;;;;;;4952932;29;20061;-79
2022/05/31 13:49:07;;;;;;;5.22;2.88;;;22.60;47.10;;;;;;4952899;29;20142;-78
2022/05/31 13:51:34;;;;;;;6.07;3.25;;;23.80;43.60;;;;;;4952484;28;20166;-79
2022/05/31 13:54:28;;;;;;;7.68;3.45;;;23.90;42.00;;;;;;4936745;29;20162;-79
2022/05/31 13:56:59;;;;;;;5.07;2.95;;;24.30;41.20;;;;;;4951071;29;20058;-79